Time;durP1;ratioP1;P1;durP2;ratioP2;P2;SDS_P1;SDS_P2;PMS_P1;PMS_P2;Temp;Humidity;BMP_temperature;BMP_pressure;BME280_temperature;BME280_humidity;BME280_pressure;Samples;Min_cycle;Max_cycle;Signal;HPM_P1;HPM_P2
2022/06/13 00:00:34;;;;;;;0.25;0.25;;;;;;;19.63;60.04;96998.88;10369753;28;20099;-22
2022/06/13 00:05:35;;;;;;;0.10;0.10;;;;;;;19.85;58.80;96998.03;10370255;28;20045;-21
2022/06/13 00:10:36;;;;;;;0.10;0.10;;;;;;;19.72;58.42;96987.03;10370604;28;20578;-20
2022/06/13 00:15:37;;;;;;;0.10;0.10;;;;;;;19.65;58.05;96998.03;10370616;28;20034;-22
2022/06/13 00:20:38;;;;;;;0.20;0.20;;;;;;;19.60;58.26;97007.34;10370402;28;20064;-21
2022/06/13 00:25:38;;;;;;;0.20;0.20;;;;;;;19.57;58.20;96988.69;10371165;28;20140;-21
2022/06/13 00:30:38;;;;;;;0.40;0.17;;;;;;;19.55;58.00;96982.78;10370630;28;20661;-20
2022/06/13 00:35:39;;;;;;;0.20;0.20;;;;;;;19.55;58.07;96978.56;10389368;28;20038;-21
2022/06/13 00:40:40;;;;;;;0.20;0.20;;;;;;;19.54;58.23;96976.00;10369800;28;20464;-20
2022/06/13 00:45:41;;;;;;;0.20;0.20;;;;;;;19.53;58.14;96970.09;10368685;28;20125;-21
2022/06/13 00:50:55;;;;;;;0.40;0.40;;;;;;;19.53;57.99;96969.25;10371200;28;20506;-20
2022/06/13 00:56:00;;;;;;;0.20;0.20;;;;;;;19.53;58.18;96962.50;10369699;28;20022;-21
2022/06/13 01:01:00;;;;;;;0.20;0.15;;;;;;;19.76;59.18;96942.13;10369330;28;20069;-21
2022/06/13 01:06:04;;;;;;;0.20;0.20;;;;;;;19.82;57.91;96942.97;10368396;28;20065;-20
2022/06/13 01:11:18;;;;;;;0.10;0.10;;;;;;;19.68;58.54;96948.94;10368134;28;20033;-22
2022/06/13 01:16:39;;;;;;;0.20;0.20;;;;;;;19.62;58.08;96956.53;10368777;28;20121;-20
2022/06/13 01:22:02;;;;;;;0.30;0.30;;;;;;;19.58;58.06;96945.53;10368044;28;20124;-21
2022/06/13 01:27:31;;;;;;;0.25;0.25;;;;;;;19.56;57.98;96939.63;10339774;28;20049;-20
2022/06/13 01:32:51;;;;;;;0.20;0.20;;;;;;;19.55;57.85;96926.91;10375865;28;20033;-21
2022/06/13 01:38:10;;;;;;;0.20;0.20;;;;;;;19.54;57.92;96931.16;10385547;28;20559;-22
2022/06/13 01:43:17;;;;;;;0.20;0.20;;;;;;;19.54;57.96;96917.59;10368337;28;20116;-21
2022/06/13 01:48:27;;;;;;;;;;;;;;;19.54;58.00;96917.59;10368098;28;20049;-21
2022/06/13 01:53:51;;;;;;;0.20;0.20;;;;;;;19.55;59.10;96916.75;10370420;28;19913;-20
2022/06/13 01:59:14;;;;;;;0.15;0.15;;;;;;;19.79;58.92;96930.28;10367124;28;20088;-21
2022/06/13 02:04:23;;;;;;;0.10;0.10;;;;;;;19.85;58.04;96926.88;10367324;28;20084;-21
2022/06/13 02:09:28;;;;;;;0.10;0.10;;;;;;;19.69;58.26;96943.81;10367351;28;20044;-22
2022/06/13 02:14:43;;;;;;;0.43;0.10;;;;;;;19.64;58.02;96952.28;10366830;28;20041;-22
2022/06/13 02:20:12;;;;;;;0.22;0.20;;;;;;;19.61;58.05;96967.56;10367266;28;20033;-20
2022/06/13 02:25:45;;;;;;;0.28;0.28;;;;;;;19.51;58.12;96950.63;10370395;28;20038;-21
2022/06/13 02:31:00;;;;;;;0.20;0.20;;;;;;;19.54;58.00;96955.69;10374035;28;20507;-21
2022/06/13 02:36:16;;;;;;;0.10;0.10;;;;;;;19.56;58.07;96936.22;10390047;28;20029;-21
2022/06/13 02:41:21;;;;;;;0.30;0.30;;;;;;;19.56;58.00;96946.38;10374963;28;20026;-21
2022/06/13 02:46:36;;;;;;;0.30;0.30;;;;;;;19.52;57.99;96942.16;10373859;28;20048;-21
2022/06/13 02:51:48;;;;;;;0.47;0.38;;;;;;;19.56;58.46;96942.16;10387077;28;20064;-21
2022/06/13 03:02:33;;;;;;;0.30;0.20;;;;;;;19.81;58.47;96950.59;10372802;28;20041;-20
2022/06/13 03:07:38;;;;;;;0.20;0.20;;;;;;;19.66;58.18;96943.00;10372452;28;20413;-22
2022/06/13 03:12:54;;;;;;;0.20;0.20;;;;;;;19.54;58.24;96936.25;10372949;28;20408;-21
2022/06/13 03:18:03;;;;;;;0.07;0.07;;;;;;;19.60;58.12;96965.88;10372861;28;20113;-22
2022/06/13 03:23:20;;;;;;;0.20;0.20;;;;;;;19.58;57.98;96963.31;10372850;28;20041;-20
2022/06/13 03:28:29;;;;;;;0.20;0.20;;;;;;;19.57;57.99;96950.59;10372449;28;20041;-21
2022/06/13 03:33:40;;;;;;;0.30;0.30;;;;;;;19.57;57.99;96971.78;10387882;28;20029;-21
2022/06/13 03:38:47;;;;;;;0.20;0.20;;;;;;;19.56;57.97;96965.00;10371544;28;20042;-22
2022/06/13 03:43:55;;;;;;;0.25;0.25;;;;;;;19.56;58.35;96964.16;10371370;28;20117;-21
2022/06/13 03:49:06;;;;;;;0.57;0.35;;;;;;;19.37;58.96;96927.78;10371122;28;20117;-20
2022/06/13 03:54:12;;;;;;;0.20;0.20;;;;;;;19.81;59.01;96970.91;10405074;28;20260;-21
2022/06/13 03:59:33;;;;;;;0.10;0.10;;;;;;;19.87;58.22;96978.53;10380829;28;20053;-21
2022/06/13 04:04:39;;;;;;;0.10;0.10;;;;;;;19.66;58.32;96965.88;10371365;28;20396;-20
2022/06/13 04:09:49;;;;;;;0.15;0.15;;;;;;;19.64;58.35;96972.63;10370887;28;20038;-20
2022/06/13 04:15:13;;;;;;;0.15;0.15;;;;;;;19.62;58.08;96984.47;10370678;28;20026;-21
2022/06/13 04:20:36;;;;;;;0.20;0.20;;;;;;;19.60;58.03;96981.09;10370338;28;20072;-21
2022/06/13 04:26:05;;;;;;;0.10;0.10;;;;;;;19.59;57.89;96994.66;10369552;28;20405;-21
2022/06/13 04:31:08;;;;;;;0.22;0.22;;;;;;;19.53;58.01;96984.47;10369968;28;20095;-21
2022/06/13 04:36:12;;;;;;;0.57;0.35;;;;;;;19.59;57.97;96992.13;10381126;28;20192;-21
2022/06/13 04:41:16;;;;;;;0.20;0.20;;;;;;;19.58;58.09;96990.44;10370792;28;20095;-20
2022/06/13 04:46:19;;;;;;;0.30;0.30;;;;;;;19.49;58.18;96968.41;10368880;28;20034;-21
2022/06/13 04:51:26;;;;;;;0.10;0.10;;;;;;;19.75;59.07;96996.34;10379863;28;20033;-21
2022/06/13 04:56:27;;;;;;;0.10;0.10;;;;;;;19.86;58.31;96999.72;10400651;28;20124;-21
2022/06/13 05:01:34;;;;;;;0.10;0.10;;;;;;;19.71;58.23;97000.56;10369269;28;20034;-20
2022/06/13 05:06:46;;;;;;;0.10;0.10;;;;;;;19.66;58.26;97019.22;10368721;28;20507;-23
2022/06/13 05:11:52;;;;;;;0.30;0.30;;;;;;;19.63;58.06;97016.66;10368933;28;20061;-20
2022/06/13 05:17:01;;;;;;;0.30;0.30;;;;;;;19.61;58.05;97010.72;10368068;28;20046;-20
2022/06/13 05:22:23;;;;;;;0.52;0.30;;;;;;;19.60;58.10;97021.75;10368146;28;20066;-22
2022/06/13 05:27:24;;;;;;;0.17;0.17;;;;;;;19.58;58.02;97031.88;10367797;28;20093;-21
2022/06/13 05:32:24;;;;;;;0.30;0.30;;;;;;;19.58;57.86;97025.97;10374685;28;20451;-20
2022/06/13 05:37:24;;;;;;;0.20;0.20;;;;;;;19.51;58.03;97027.66;10377267;28;20038;-21
2022/06/13 05:42:25;;;;;;;0.35;0.35;;;;;;;19.58;58.14;97054.75;10367116;28;20045;-21
2022/06/13 05:47:25;;;;;;;0.23;0.23;;;;;;;19.74;59.34;97055.59;10367352;28;20045;-21
2022/06/13 05:52:26;;;;;;;0.10;0.10;;;;;;;19.91;58.71;97054.75;10386936;28;20209;-22
2022/06/13 05:57:26;;;;;;;0.10;0.10;;;;;;;19.79;58.50;97066.63;10391825;28;20034;-22
2022/06/13 06:02:26;;;;;;;0.63;0.10;;;;;;;19.69;58.19;97072.53;10374774;28;20660;-21
2022/06/13 06:07:28;;;;;;;0.23;0.23;;;;;;;19.64;58.23;97085.25;10375332;28;20299;-23
2022/06/13 06:12:28;;;;;;;0.20;0.20;;;;;;;19.61;58.15;97086.94;10375066;28;20026;-20
2022/06/13 06:17:29;;;;;;;0.38;0.30;;;;;;;19.63;58.16;97090.31;10375266;28;20041;-21
2022/06/13 06:22:29;;;;;;;0.20;0.20;;;;;;;19.62;58.19;97093.69;10374887;28;20482;-20
2022/06/13 06:27:30;;;;;;;0.30;0.30;;;;;;;19.61;58.05;97104.72;10375266;28;20071;-20
2022/06/13 06:32:30;;;;;;;0.20;0.20;;;;;;;19.60;58.00;97093.69;10382541;28;20364;-21
2022/06/13 06:37:31;;;;;;;0.25;0.20;;;;;;;19.60;58.09;97103.84;10397465;28;20029;-21
2022/06/13 06:42:31;;;;;;;0.20;0.20;;;;;;;19.61;58.95;97104.72;10374079;28;20485;-22
2022/06/13 06:47:32;;;;;;;0.23;0.23;;;;;;;19.84;59.21;97108.13;10374528;28;20367;-21
2022/06/13 06:52:32;;;;;;;0.10;0.10;;;;;;;19.86;58.20;97112.34;10393282;28;20185;-21
2022/06/13 07:02:51;;;;;;;0.20;0.20;;;;;;;19.67;58.27;97119.97;10371132;28;20037;-21
2022/06/13 07:07:52;;;;;;;0.25;0.25;;;;;;;19.62;58.14;97116.56;10371282;28;20488;-21
2022/06/13 07:12:52;;;;;;;0.20;0.20;;;;;;;19.58;58.04;97122.50;10370360;28;20036;-21
2022/06/13 07:17:53;;;;;;;0.37;0.30;;;;;;;19.62;58.04;97134.34;10370665;28;20038;-20
2022/06/13 07:22:54;;;;;;;0.20;0.20;;;;;;;19.61;58.04;97132.66;10370267;28;20091;-21
2022/06/13 07:27:55;;;;;;;0.25;0.25;;;;;;;19.59;58.12;97139.44;10369767;28;20060;-21
2022/06/13 07:32:56;;;;;;;0.20;0.15;;;;;;;19.58;58.06;97140.28;10380832;28;20041;-21
2022/06/13 07:43:24;;;;;;;0.30;0.30;;;;;;;19.79;59.28;97153.88;10369614;28;20037;-19
2022/06/13 07:48:26;;;;;;;0.17;0.10;;;;;;;19.91;58.19;97156.41;10368930;28;20393;-21
2022/06/13 07:53:27;;;;;;;0.20;0.10;;;;;;;19.75;58.36;97156.41;10332827;28;1075230;-20
2022/06/13 07:58:32;;;;;;;0.20;0.20;;;;;;;19.65;58.05;97157.19;10371125;28;20323;-20
2022/06/13 08:03:34;;;;;;;0.20;0.20;;;;;;;19.60;58.01;97157.19;10370385;28;20038;-20
2022/06/13 08:08:35;;;;;;;0.35;0.30;;;;;;;19.63;57.84;97163.97;10370596;28;20515;-20
2022/06/13 08:13:37;;;;;;;0.20;0.20;;;;;;;19.62;57.96;97157.19;10370585;28;20033;-21
2022/06/13 08:18:38;;;;;;;0.35;0.35;;;;;;;19.62;58.11;97167.38;10370062;28;20037;-22
2022/06/13 08:23:39;;;;;;;0.50;0.40;;;;;;;19.62;57.94;97164.81;10369903;28;20041;-21
2022/06/13 08:28:39;;;;;;;0.20;0.20;;;;;;;19.62;58.04;97157.19;10370007;28;20041;-20
2022/06/13 08:33:39;;;;;;;0.30;0.30;;;;;;;19.59;57.87;97163.13;10381426;28;20030;-21
2022/06/13 08:38:40;;;;;;;0.30;0.30;;;;;;;19.66;60.35;97171.63;10369208;28;20285;-22
2022/06/13 08:44:00;;;;;;;0.13;0.13;;;;;;;19.89;58.82;97164.88;10368449;28;20503;-21
2022/06/13 08:49:29;;;;;;;0.75;0.20;;;;;;;19.86;58.55;97169.97;10369182;28;20477;-22
2022/06/13 08:54:34;;;;;;;0.10;0.10;;;;;;;19.72;57.99;97164.00;10404890;28;20076;-22
2022/06/13 08:59:55;;;;;;;0.10;0.10;;;;;;;19.67;57.93;97166.53;10375534;28;20099;-20
2022/06/13 09:05:02;;;;;;;0.38;0.30;;;;;;;19.65;57.95;97167.38;10369062;28;20116;-20
2022/06/13 09:10:11;;;;;;;0.30;0.30;;;;;;;19.62;58.09;97167.38;10369163;28;20037;-21
2022/06/13 09:15:21;;;;;;;0.20;0.20;;;;;;;19.61;57.86;97175.84;10368565;28;20092;-20
2022/06/13 09:20:38;;;;;;;0.40;0.30;;;;;;;19.61;57.97;97183.44;10368259;28;20045;-20
2022/06/13 09:25:47;;;;;;;0.20;0.17;;;;;;;19.59;57.80;97183.44;10368070;28;20042;-21
2022/06/13 09:30:54;;;;;;;0.20;0.20;;;;;;;19.59;57.86;97192.78;10367731;28;20026;-20
2022/06/13 09:36:00;;;;;;;0.20;0.20;;;;;;;19.62;58.74;97190.22;10378311;28;20064;-21
2022/06/13 09:41:00;;;;;;;0.40;0.40;;;;;;;19.85;58.94;97201.31;10367346;28;20045;-21
2022/06/13 09:46:27;;;;;;;0.17;0.17;;;;;;;19.88;58.22;97201.31;10367549;28;20041;-21
2022/06/13 09:51:35;;;;;;;0.15;0.15;;;;;;;19.73;58.11;97196.19;10378859;28;20414;-21
2022/06/13 09:57:07;;;;;;;0.35;0.20;;;;;;;19.66;58.05;97199.56;10398676;28;20029;-21
2022/06/13 10:02:17;;;;;;;0.82;0.30;;;;;;;19.64;57.84;97196.16;10367672;28;20512;-20
2022/06/13 10:07:34;;;;;;;0.20;0.20;;;;;;;19.56;57.83;97182.56;10366783;28;20042;-22
2022/06/13 10:12:42;;;;;;;0.30;0.30;;;;;;;19.61;57.87;97186.81;10366503;28;20034;-20
2022/06/13 10:17:59;;;;;;;0.40;0.38;;;;;;;19.62;57.93;97182.59;10367299;28;20527;-20
2022/06/13 10:23:13;;;;;;;0.28;0.28;;;;;;;19.62;57.66;97188.53;10366522;28;20065;-20
2022/06/13 10:28:22;;;;;;;0.47;0.20;;;;;;;19.61;57.91;97186.81;10366402;28;20050;-21
2022/06/13 10:33:32;;;;;;;0.20;0.20;;;;;;;19.64;60.01;97186.00;10379614;28;20032;-21
2022/06/13 10:39:04;;;;;;;0.10;0.10;;;;;;;19.90;58.81;97184.34;10367052;28;20037;-21
2022/06/13 10:44:09;;;;;;;0.10;0.10;;;;;;;19.92;58.48;97182.69;10366730;28;20038;-21
2022/06/13 10:49:23;;;;;;;0.20;0.20;;;;;;;19.77;58.34;97182.66;10373898;28;20116;-21
2022/06/13 10:54:32;;;;;;;0.15;0.15;;;;;;;19.71;58.14;97173.31;10409259;28;20037;-20
2022/06/13 10:59:36;;;;;;;0.15;0.15;;;;;;;19.67;57.94;97170.78;10381448;28;20041;-22
2022/06/13 11:04:37;;;;;;;0.25;0.20;;;;;;;19.67;57.87;97170.78;10372335;28;20404;-20
2022/06/13 11:09:47;;;;;;;0.20;0.20;;;;;;;19.66;58.15;97169.91;10373830;28;20034;-22
2022/06/13 11:25:36;;;;;;;0.30;0.20;;;;;;;19.63;57.92;97169.91;10372310;28;20095;-20
2022/06/13 11:30:49;;;;;;;0.22;0.22;;;;;;;19.62;57.93;97163.16;10372648;28;20417;-22
2022/06/13 11:35:54;;;;;;;0.10;0.10;;;;;;;19.85;58.99;97156.41;10398813;28;20404;-21
2022/06/13 11:41:15;;;;;;;0.30;0.20;;;;;;;19.91;58.56;97164.03;10372115;28;20044;-21
2022/06/13 11:46:36;;;;;;;0.10;0.10;;;;;;;19.75;58.00;97157.22;10371473;28;20408;-21
2022/06/13 11:52:05;;;;;;;0.35;0.35;;;;;;;19.72;57.91;97159.78;10384555;28;20029;-24
2022/06/13 11:57:31;;;;;;;0.30;0.30;;;;;;;19.67;57.94;97145.38;10378725;28;20119;-20
2022/06/13 12:02:39;;;;;;;0.35;0.28;;;;;;;19.66;57.87;97148.75;10364230;28;20054;-20
2022/06/13 12:07:51;;;;;;;0.45;0.30;;;;;;;19.63;57.94;97144.53;10371078;28;20041;-21
2022/06/13 12:12:52;;;;;;;0.20;0.20;;;;;;;19.62;57.71;97141.97;10370881;28;20034;-21
2022/06/13 12:18:20;;;;;;;0.63;0.20;;;;;;;19.62;57.77;97137.75;10371076;28;20382;-20
2022/06/13 12:23:35;;;;;;;0.20;0.20;;;;;;;19.64;58.12;97136.03;10367469;28;20439;-20
2022/06/13 12:28:58;;;;;;;0.25;0.10;;;;;;;19.70;61.05;97135.22;10370379;28;20037;-21
2022/06/13 12:34:22;;;;;;;0.10;0.10;;;;;;;19.94;58.78;97140.31;10380648;28;20029;-22
2022/06/13 12:39:29;;;;;;;0.20;0.20;;;;;;;19.92;58.68;97134.41;10370496;28;20156;-20
2022/06/13 12:44:43;;;;;;;0.30;0.20;;;;;;;19.79;58.62;97130.13;10369059;28;20056;-20
2022/06/13 12:49:58;;;;;;;0.20;0.20;;;;;;;19.75;58.30;97128.44;10369646;28;20037;-21
2022/06/13 12:55:23;;;;;;;0.40;0.40;;;;;;;19.72;58.16;97128.44;10409334;28;20040;-22
2022/06/13 13:00:50;;;;;;;0.20;0.20;;;;;;;19.70;57.98;97125.91;10368822;28;20041;-21
2022/06/13 13:06:14;;;;;;;0.30;0.30;;;;;;;19.69;57.98;97125.91;10367968;28;20049;-21
2022/06/13 13:11:28;;;;;;;0.30;0.30;;;;;;;19.69;58.29;97118.28;10367943;28;20460;-21
2022/06/13 13:16:50;;;;;;;0.20;0.20;;;;;;;19.68;58.11;97116.59;10368247;28;20165;-20
2022/06/13 13:21:57;;;;;;;0.30;0.30;;;;;;;19.66;58.13;97113.19;10367515;28;20042;-21
2022/06/13 13:27:11;;;;;;;0.20;0.20;;;;;;;19.76;60.21;97117.44;10368084;28;20041;-20
2022/06/13 13:32:30;;;;;;;0.10;0.10;;;;;;;19.98;58.44;97106.44;10372550;28;20408;-23
2022/06/13 13:37:37;;;;;;;0.10;0.10;;;;;;;19.93;58.63;97110.69;10383636;28;20568;-23
2022/06/13 13:42:45;;;;;;;0.55;0.30;;;;;;;19.81;58.50;97110.66;10368426;28;20184;-21
2022/06/13 13:47:52;;;;;;;0.10;0.10;;;;;;;19.75;58.04;97114.03;10368107;28;20029;-20
2022/06/13 13:52:58;;;;;;;0.45;0.40;;;;;;;19.72;58.25;97106.44;10390896;28;20045;-21
2022/06/13 13:58:06;;;;;;;0.70;0.40;;;;;;;19.69;58.01;97092.88;10387882;28;20476;-21
2022/06/13 14:03:32;;;;;;;0.32;0.22;;;;;;;19.66;58.50;97097.97;10367741;28;20396;-27
2022/06/13 14:08:36;;;;;;;0.60;0.30;;;;;;;19.62;58.03;97093.69;10367696;28;20030;-21
2022/06/13 14:13:41;;;;;;;0.30;0.30;;;;;;;19.68;58.20;97091.19;10367035;28;20386;-22
2022/06/13 14:18:44;;;;;;;0.30;0.30;;;;;;;19.66;58.18;97088.63;10367022;28;20481;-22
2022/06/13 14:23:58;;;;;;;0.68;0.40;;;;;;;19.72;60.36;97090.31;10375064;28;20583;-21
2022/06/13 14:29:04;;;;;;;0.10;0.10;;;;;;;19.96;58.99;97082.72;10374539;28;20416;-21
2022/06/13 14:39:51;;;;;;;0.45;0.20;;;;;;;19.79;58.61;97077.66;10378375;28;20484;-21
2022/06/13 14:45:01;;;;;;;0.23;0.23;;;;;;;19.74;58.28;97075.91;10373828;28;20409;-20
2022/06/13 14:50:02;;;;;;;0.40;0.10;;;;;;;19.71;58.03;97069.16;10373750;28;20041;-21
2022/06/13 14:55:02;;;;;;;0.15;0.15;;;;;;;19.70;58.06;97066.63;10415234;28;20116;-20
2022/06/13 15:00:14;;;;;;;0.32;0.30;;;;;;;19.70;58.00;97072.56;10376819;28;20459;-20
2022/06/13 15:05:15;;;;;;;0.52;0.30;;;;;;;19.70;58.07;97064.06;10373660;28;20464;-21
2022/06/13 15:10:21;;;;;;;0.43;0.30;;;;;;;19.69;57.77;97072.53;10373640;28;20429;-20
2022/06/13 15:15:30;;;;;;;0.40;0.40;;;;;;;19.68;57.98;97070.84;10373393;28;20030;-20
2022/06/13 15:20:35;;;;;;;0.85;0.20;;;;;;;19.77;60.83;97071.69;10372707;28;20045;-21
2022/06/13 15:25:45;;;;;;;0.10;0.10;;;;;;;20.00;58.65;97059.84;10371981;28;20664;-21
2022/06/13 15:31:02;;;;;;;0.20;0.20;;;;;;;19.91;58.77;97056.47;10372597;28;20029;-22
2022/06/13 15:36:21;;;;;;;;;;;;;;;19.82;58.45;97053.91;10391937;28;20488;-20
2022/06/13 15:41:39;;;;;;;0.30;0.30;;;;;;;19.75;58.12;97054.78;10372167;28;20009;-20
2022/06/13 15:47:02;;;;;;;0.20;0.20;;;;;;;19.73;57.90;97053.91;10372345;28;20044;-20
2022/06/13 15:52:19;;;;;;;0.30;0.15;;;;;;;19.65;58.19;97037.81;10387943;28;20037;-21
2022/06/13 15:57:19;;;;;;;0.38;0.30;;;;;;;19.71;57.87;97050.53;10396820;28;20044;-21
2022/06/13 16:02:29;;;;;;;0.27;0.27;;;;;;;19.69;58.19;97042.06;10371234;28;20052;-21
2022/06/13 16:07:33;;;;;;;0.22;0.22;;;;;;;19.70;58.15;97041.22;10370758;28;20378;-21
2022/06/13 16:12:42;;;;;;;0.28;0.20;;;;;;;19.69;58.19;97034.44;10370727;28;20113;-20
2022/06/13 16:17:47;;;;;;;0.17;0.17;;;;;;;19.85;59.57;97034.44;10371253;28;20092;-20
2022/06/13 16:22:52;;;;;;;0.38;0.10;;;;;;;20.05;58.49;97035.31;10370199;28;20104;-20
2022/06/13 16:27:56;;;;;;;0.10;0.10;;;;;;;19.89;58.87;97032.72;10370646;28;20040;-20
2022/06/13 16:32:56;;;;;;;0.30;0.30;;;;;;;19.81;58.28;97036.97;10380717;28;20087;-21
2022/06/13 16:38:05;;;;;;;0.22;0.20;;;;;;;19.76;58.12;97033.59;10383819;28;20030;-20
2022/06/13 16:43:15;;;;;;;0.13;0.13;;;;;;;19.74;58.01;97035.28;10368302;28;20042;-20
2022/06/13 16:48:19;;;;;;;0.30;0.30;;;;;;;19.72;57.94;97036.97;10369364;28;20068;-21
2022/06/13 16:53:19;;;;;;;0.63;0.20;;;;;;;19.72;58.08;97042.06;10390812;28;20022;-22
2022/06/13 16:58:28;;;;;;;0.22;0.10;;;;;;;19.71;58.15;97032.75;10369711;28;20033;-20
2022/06/13 17:04:02;;;;;;;0.65;0.30;;;;;;;19.70;58.14;97028.50;10368882;28;20042;-23
2022/06/13 17:09:08;;;;;;;0.20;0.20;;;;;;;19.70;58.08;97038.69;10367062;28;20061;-21
2022/06/13 17:14:08;;;;;;;0.10;0.10;;;;;;;19.88;59.43;97036.13;10368253;28;20041;-21
2022/06/13 17:19:09;;;;;;;0.10;0.10;;;;;;;20.10;58.80;97040.38;10368172;28;20120;-20
2022/06/13 17:24:09;;;;;;;0.08;0.08;;;;;;;19.93;58.75;97042.91;10367969;28;20045;-20
2022/06/13 17:34:30;;;;;;;0.13;0.10;;;;;;;19.74;58.20;97041.22;10378431;28;20396;-20
2022/06/13 17:39:32;;;;;;;0.10;0.10;;;;;;;19.75;58.03;97045.44;10367821;28;20042;-20
2022/06/13 17:44:38;;;;;;;0.10;0.10;;;;;;;19.74;58.05;97048.84;10367163;28;20120;-21
2022/06/13 17:49:39;;;;;;;0.20;0.20;;;;;;;19.73;58.02;97046.28;10367478;28;20480;-21
2022/06/13 17:54:40;;;;;;;0.20;0.10;;;;;;;19.73;58.14;97051.38;10408157;28;20404;-20
2022/06/13 17:59:42;;;;;;;0.30;0.20;;;;;;;19.71;58.06;97051.38;10382011;28;20089;-20
2022/06/13 18:04:44;;;;;;;0.20;0.20;;;;;;;19.71;58.13;97059.00;10375916;28;20609;-21
2022/06/13 18:09:47;;;;;;;0.10;0.10;;;;;;;19.82;60.08;97053.91;10375935;28;20041;-21
2022/06/13 18:14:48;;;;;;;0.10;0.10;;;;;;;20.04;58.92;97060.69;10375025;28;20026;-20
2022/06/13 18:19:50;;;;;;;0.10;0.10;;;;;;;19.99;58.91;97062.38;10375154;28;20034;-20
2022/06/13 18:24:51;;;;;;;0.10;0.10;;;;;;;19.86;58.43;97065.78;10375327;28;20037;-21
2022/06/13 18:29:54;;;;;;;0.10;0.10;;;;;;;19.81;58.00;97062.38;10375016;28;20044;-21
2022/06/13 18:34:54;;;;;;;0.17;0.10;;;;;;;19.77;58.03;97065.78;10401221;28;20037;-20
2022/06/13 18:39:55;;;;;;;0.13;0.13;;;;;;;19.74;57.95;97066.63;10378121;28;20037;-21
2022/06/13 18:44:55;;;;;;;0.28;0.28;;;;;;;19.75;58.14;97072.56;10374153;28;20736;-20
2022/06/13 18:49:56;;;;;;;0.15;0.15;;;;;;;19.72;57.93;97073.41;10374366;28;20026;-21
2022/06/13 18:54:57;;;;;;;0.22;0.20;;;;;;;19.71;58.01;97074.25;10375489;28;20030;-23
2022/06/13 18:59:58;;;;;;;0.22;0.22;;;;;;;19.70;58.15;97074.25;10374159;28;20416;-20
2022/06/13 19:04:58;;;;;;;0.63;0.20;;;;;;;19.74;58.60;97070.84;10372738;28;20038;-21
2022/06/13 19:10:00;;;;;;;0.10;0.10;;;;;;;19.98;59.46;97075.94;10373439;28;20228;-19
2022/06/13 19:15:06;;;;;;;0.10;0.10;;;;;;;20.00;58.54;97084.44;10373580;28;20030;-20
2022/06/13 19:20:10;;;;;;;0.20;0.20;;;;;;;19.86;58.58;97086.09;10373202;28;20022;-21
2022/06/13 19:25:11;;;;;;;0.10;0.10;;;;;;;19.81;58.16;97098.81;10372840;28;20121;-22
2022/06/13 19:30:13;;;;;;;0.10;0.10;;;;;;;19.72;58.08;97095.41;10372397;28;20412;-20
2022/06/13 19:35:19;;;;;;;0.47;0.17;;;;;;;19.75;57.97;97105.59;10399515;28;20033;-21
2022/06/13 19:40:21;;;;;;;0.20;0.13;;;;;;;19.72;57.85;97118.25;10372211;28;20481;-21
2022/06/13 19:45:23;;;;;;;0.30;0.25;;;;;;;19.71;58.04;97125.06;10371652;28;20045;-21
2022/06/13 19:50:25;;;;;;;0.38;0.28;;;;;;;19.71;58.16;97134.34;10375705;28;20048;-21
2022/06/13 19:55:26;;;;;;;0.10;0.10;;;;;;;19.72;58.09;97141.13;10412457;28;20084;-20
2022/06/13 20:00:29;;;;;;;0.47;0.10;;;;;;;19.73;58.37;97130.13;10371766;28;20034;-21
2022/06/13 20:05:30;;;;;;;0.20;0.10;;;;;;;19.97;58.82;97150.47;10370868;28;20145;-20
2022/06/13 20:10:32;;;;;;;0.10;0.10;;;;;;;20.02;58.32;97144.56;10371433;28;20073;-21
2022/06/13 20:15:34;;;;;;;0.10;0.10;;;;;;;19.87;58.34;97144.56;10411721;28;20033;-20
2022/06/13 20:20:36;;;;;;;0.32;0.30;;;;;;;19.83;58.29;97158.09;10401656;28;20095;-20
2022/06/13 20:25:37;;;;;;;0.17;0.17;;;;;;;19.74;57.98;97153.00;10370312;28;20543;-20
2022/06/13 20:30:42;;;;;;;0.20;0.20;;;;;;;19.77;58.00;97167.41;10370696;28;20108;-20
2022/06/13 20:35:43;;;;;;;0.20;0.10;;;;;;;19.75;58.10;97164.84;10381681;28;20030;-20
2022/06/13 20:40:44;;;;;;;0.10;0.10;;;;;;;19.75;57.91;97166.56;10369612;28;20045;-21
2022/06/13 20:45:46;;;;;;;0.43;0.20;;;;;;;19.74;58.07;97170.78;10369468;28;20034;-21
2022/06/13 20:50:52;;;;;;;0.20;0.20;;;;;;;19.73;58.05;97174.16;10375171;28;20416;-20
2022/06/13 20:55:53;;;;;;;0.35;0.10;;;;;;;19.73;58.05;97169.09;10405776;28;20045;-22
2022/06/13 21:00:53;;;;;;;0.10;0.10;;;;;;;19.93;59.49;97169.13;10369184;28;20038;-21
2022/06/13 21:05:54;;;;;;;0.10;0.10;;;;;;;20.07;58.18;97175.09;10369545;28;20045;-20
2022/06/13 21:10:55;;;;;;;0.68;0.10;;;;;;;19.90;58.39;97169.09;10369032;28;20523;-21
2022/06/13 21:15:58;;;;;;;0.30;0.10;;;;;;;19.83;58.06;97168.25;10368771;28;20048;-21
2022/06/13 21:20:58;;;;;;;0.25;0.20;;;;;;;19.80;58.19;97173.34;10368530;28;20387;-20
2022/06/13 21:26:00;;;;;;;0.30;0.30;;;;;;;19.78;57.96;97181.81;10368418;28;20022;-20
2022/06/13 21:31:01;;;;;;;0.20;0.20;;;;;;;19.77;57.94;97187.72;10368067;28;20484;-21
2022/06/13 21:36:02;;;;;;;0.10;0.10;;;;;;;19.75;58.10;97169.94;10383495;28;20045;-21
2022/06/13 21:41:05;;;;;;;0.10;0.10;;;;;;;19.71;57.93;97167.38;10367847;28;20045;-22
2022/06/13 21:46:08;;;;;;;0.20;0.20;;;;;;;19.74;58.06;97175.00;10368264;28;20029;-20
2022/06/13 21:51:12;;;;;;;0.20;0.20;;;;;;;19.73;58.09;97176.72;10376556;28;20140;-20
2022/06/13 21:56:13;;;;;;;0.10;0.10;;;;;;;19.91;59.24;97181.00;10401872;28;20038;-22
2022/06/13 22:01:16;;;;;;;2.10;0.30;;;;;;;20.09;58.12;97176.78;10367674;28;20041;-20
2022/06/13 22:06:16;;;;;;;0.10;0.10;;;;;;;19.95;57.66;97183.53;10366664;28;20253;-20
2022/06/13 22:11:17;;;;;;;0.40;0.20;;;;;;;19.86;58.03;97183.50;10367215;28;20091;-20
2022/06/13 22:16:17;;;;;;;0.20;0.20;;;;;;;19.81;57.90;97174.19;10366756;28;20049;-22
2022/06/13 22:21:18;;;;;;;0.40;0.30;;;;;;;19.79;57.84;97173.34;10366328;28;20300;-21
2022/06/13 22:26:18;;;;;;;0.20;0.20;;;;;;;19.69;57.72;97159.75;10366577;28;20044;-21
2022/06/13 22:31:19;;;;;;;0.70;0.20;;;;;;;19.76;57.98;97169.09;10366847;28;20030;-20
2022/06/13 22:36:19;;;;;;;0.20;0.20;;;;;;;19.74;57.85;97175.88;10383884;28;20095;-20
2022/06/13 22:41:20;;;;;;;0.20;0.20;;;;;;;19.67;57.79;97155.53;10369152;28;20412;-21
2022/06/13 22:49:45;;;;;;;0.20;0.20;;;;;;;19.73;58.04;97161.47;10375578;28;20029;-20
2022/06/13 22:51:40;;;;;;;0.30;0.20;;;;;;;19.77;60.01;97157.25;10389921;28;20030;-21
2022/06/13 22:56:41;;;;;;;0.30;0.20;;;;;;;20.07;58.79;97167.47;10406817;28;20034;-20
2022/06/13 23:01:41;;;;;;;0.13;0.13;;;;;;;20.00;58.41;97175.94;10375734;28;20060;-20
2022/06/13 23:06:42;;;;;;;0.10;0.10;;;;;;;19.88;58.16;97173.34;10374942;28;20492;-20
2022/06/13 23:11:42;;;;;;;0.10;0.10;;;;;;;19.82;57.89;97170.78;10374199;28;20034;-21
2022/06/13 23:16:43;;;;;;;0.20;0.20;;;;;;;19.79;57.95;97168.25;10374670;28;20187;-21
2022/06/13 23:21:43;;;;;;;0.20;0.20;;;;;;;19.79;57.95;97165.72;10375196;28;20121;-20
2022/06/13 23:26:44;;;;;;;0.50;0.30;;;;;;;19.79;58.03;97175.88;10373692;28;20038;-21
2022/06/13 23:31:46;;;;;;;0.25;0.25;;;;;;;19.75;57.90;97169.09;10375045;28;20291;-22
2022/06/13 23:36:46;;;;;;;0.15;0.15;;;;;;;19.76;58.02;97176.72;10391152;28;20172;-21
2022/06/13 23:41:46;;;;;;;0.20;0.20;;;;;;;19.75;57.92;97174.19;10374806;28;20528;-22
2022/06/13 23:46:47;;;;;;;0.20;0.20;;;;;;;19.78;58.42;97171.63;10374294;28;20044;-21
2022/06/13 23:51:47;;;;;;;0.40;0.10;;;;;;;20.02;58.77;97169.13;10387355;28;20291;-21
2022/06/13 23:56:48;;;;;;;0.10;0.10;;;;;;;19.96;58.16;97164.03;10403415;28;20033;-19
